ADDS METAR Data INFO
IDs: Format: Raw Decoded Include TAF

Data at: 1751 UTC 21 Oct 2017

KBQK 211735Z AUTO 06015G20KT 10SM CLR 26/18 A3025 RMK AO2
KBQK 211715Z AUTO 06014G23KT 10SM SCT050 26/18 A3025 RMK AO2
KBQK 211655Z AUTO 07014G17KT 10SM SCT042 SCT050 27/18 A3026 RMK AO2
KBQK 211635Z AUTO 06016G20KT 10SM SCT034 BKN042 26/17 A3026 RMK AO2
KBQK 211615Z AUTO 06014G20KT 10SM SCT036 SCT046 26/18 A3026 RMK AO2
KBQK 211555Z AUTO 05014G17KT 10SM BKN036 OVC046 26/18 A3026 RMK AO2
KBQK 211535Z AUTO 05014KT 10SM BKN038 26/18 A3026 RMK AO2
KBQK 211515Z AUTO 06015G18KT 10SM SCT040 25/18 A3026 RMK AO2
KBQK 211455Z AUTO 05011G18KT 10SM CLR 26/18 A3026 RMK AO2
KBQK 211435Z AUTO 06014G17KT 10SM SCT043 25/18 A3025 RMK AO2
KBQK 211415Z AUTO 05012G16KT 10SM CLR 24/18 A3025 RMK AO2
KBQK 211355Z AUTO 05010G16KT 10SM CLR 23/19 A3025 RMK AO2
KBQK 211335Z AUTO 04008KT 10SM CLR 23/19 A3025 RMK AO2
KBQK 211315Z AUTO 03007KT 10SM CLR 22/19 A3024 RMK AO2
KBQK 211255Z AUTO 03006KT 10SM CLR 21/18 A3024 RMK AO2
KBQK 211235Z AUTO 03006KT 10SM CLR 21/18 A3023 RMK AO2
KBQK 211215Z AUTO 02006KT 10SM CLR 20/18 A3023 RMK AO2
KBQK 211155Z AUTO 03003KT 10SM CLR 19/17 A3022 RMK AO2
KBQK 211135Z AUTO 00000KT 10SM CLR 19/17 A3021 RMK AO2
KBQK 211115Z AUTO 00000KT 10SM SCT047 19/17 A3021 RMK AO2
KBQK 211055Z AUTO 00000KT 10SM BKN047 18/17 A3021 RMK AO2
KBQK 211035Z AUTO 00000KT 10SM BKN047 18/17 A3020 RMK AO2
KBQK 211015Z AUTO 00000KT 10SM BKN047 18/17 A3020 RMK AO2
KBQK 210955Z AUTO 00000KT 10SM SCT045 18/17 A3019 RMK AO2
KBQK 210935Z AUTO 01004KT 10SM SCT044 18/17 A3018 RMK AO2
KBQK 210915Z AUTO 01004KT 10SM SCT044 18/16 A3018 RMK AO2
KBQK 210855Z AUTO 00000KT 10SM CLR 17/16 A3018 RMK AO2
KBQK 210835Z AUTO 00000KT 10SM CLR 17/16 A3017 RMK AO2
KBQK 210815Z AUTO 00000KT 7SM CLR 16/15 A3017 RMK AO2
KBQK 210755Z AUTO 00000KT 10SM CLR 17/16 A3018 RMK AO2
KBQK 210735Z AUTO 00000KT 3SM BR CLR 16/15 A3018 RMK AO2
KBQK 210715Z AUTO 00000KT 3/4SM BR VV005 16/15 A3019 RMK AO2
KBQK 210655Z AUTO 00000KT 3/4SM BR VV005 16/15 A3019 RMK AO2
KBQK 210635Z AUTO 00000KT 3/4SM BR VV005 17/16 A3019 RMK AO2
KBQK 210615Z AUTO 00000KT 1/2SM FG VV005 16/15 A3019 RMK AO2
KBQK 210555Z AUTO 00000KT 1/2SM FG VV005 17/15 A3019 RMK AO2
KBQK 210535Z AUTO 00000KT 3SM BR CLR 17/16 A3020 RMK AO2
KBQK 210515Z AUTO 00000KT 4SM BR CLR 17/15 A3019 RMK AO2
KBQK 210455Z AUTO 00000KT 10SM CLR 17/16 A3020 RMK AO2
KBQK 210435Z AUTO 00000KT 5SM BR CLR 17/15 A3020 RMK AO2
KBQK 210415Z AUTO 00000KT 10SM CLR 17/16 A3020 RMK AO2
KBQK 210355Z AUTO 00000KT 1 3/4SM BR VV007 16/15 A3020 RMK AO2 VIS 3/4V5
KBQK 210335Z AUTO 00000KT 3/4SM BR VV005 17/16 A3020 RMK AO2
KBQK 210315Z AUTO 00000KT 1/2SM FG VV005 16/15 A3020 RMK AO2
KBQK 210255Z AUTO 00000KT 1/4SM FG VV002 18/17 A3020 RMK AO2
KBQK 210235Z AUTO 00000KT 2SM BR CLR 17/16 A3019 RMK AO2
KBQK 210215Z AUTO 00000KT 4SM BR CLR 18/17 A3019 RMK AO2
KBQK 210155Z AUTO 00000KT 1/2SM FG VV005 18/17 A3019 RMK AO2
KBQK 210135Z AUTO 00000KT 10SM CLR 19/17 A3019 RMK AO2
KBQK 210115Z AUTO 00000KT 7SM CLR 18/17 A3019 RMK AO2
KBQK 210055Z AUTO 00000KT 10SM CLR 19/17 A3019 RMK AO2
KBQK 210035Z AUTO 02003KT 10SM CLR 20/17 A3019 RMK AO2
KBQK 210015Z AUTO 01003KT 10SM CLR 20/18 A3019 RMK AO2
KBQK 202355Z AUTO 02003KT 10SM CLR 21/18 A3019 RMK AO2
KBQK 202335Z AUTO 03004KT 10SM CLR 21/18 A3018 RMK AO2
KBQK 202315Z AUTO 05005KT 10SM CLR 21/18 A3018 RMK AO2
KBQK 202255Z AUTO 05004KT 10SM CLR 22/18 A3018 RMK AO2
KBQK 202235Z AUTO 05007KT 10SM CLR 22/18 A3018 RMK AO2
KBQK 202215Z AUTO 06011KT 10SM CLR 23/18 A3018 RMK AO2
KBQK 202155Z AUTO 05011KT 10SM CLR 23/18 A3018 RMK AO2
KBQK 202135Z AUTO 06011KT 10SM CLR 24/18 A3018 RMK AO2
KBQK 202115Z AUTO 06011KT 10SM SCT050 24/18 A3018 RMK AO2
KBQK 202055Z AUTO 04012G15KT 10SM CLR 25/18 A3018 RMK AO2
KBQK 202035Z AUTO 06012G17KT 10SM SCT049 25/18 A3018 RMK AO2
KBQK 202015Z AUTO 06012G16KT 10SM BKN047 25/18 A3019 RMK AO2
KBQK 201955Z AUTO 06013KT 10SM SCT047 25/18 A3019 RMK AO2
KBQK 201935Z AUTO 05014G18KT 10SM SCT043 25/18 A3018 RMK AO2
KBQK 201915Z AUTO 05013G18KT 10SM BKN041 25/17 A3019 RMK AO2
KBQK 201855Z AUTO 06013G17KT 10SM BKN041 26/18 A3019 RMK AO2
KBQK 201835Z AUTO 05013KT 10SM SCT039 26/17 A3019 RMK AO2
KBQK 201815Z AUTO 06013KT 10SM CLR 26/17 A3020 RMK AO2
KBQK 201755Z AUTO 06012KT 040V100 10SM CLR 26/18 A3021 RMK AO2
KBQK 201735Z AUTO 08011KT 10SM SCT041 26/17 A3021 RMK AO2
KBQK 201715Z AUTO 03010KT 10SM CLR 25/17 A3022 RMK AO2
KBQK 201655Z AUTO 04008KT 10SM CLR 25/16 A3023 RMK AO2
KBQK 201635Z AUTO 03009KT 7SM CLR 25/16 A3024 RMK AO2
KBQK 201615Z AUTO 03010KT 10SM CLR 25/16 A3024 RMK AO2
KBQK 201555Z AUTO 02010G16KT 10SM BKN038 25/16 A3025 RMK AO2
KBQK 201535Z AUTO 05011KT 10SM BKN036 24/16 A3025 RMK AO2
KBQK 201515Z AUTO 02008G14KT 360V070 10SM VCTS CLR 23/16 A3025 RMK AO2
KBQK 201455Z AUTO 03007KT 360V060 10SM CLR 23/16 A3025 RMK AO2
KBQK 201435Z AUTO 03010KT 10SM CLR 23/15 A3025 RMK AO2
KBQK 201415Z AUTO 02006KT 10SM CLR 22/16 A3025 RMK AO2
KBQK 201355Z AUTO 03007KT 10SM CLR 21/15 A3025 RMK AO2
KBQK 201335Z AUTO 02006KT 10SM CLR 20/15 A3024 RMK AO2
KBQK 201315Z AUTO 01007KT 10SM CLR 19/14 A3024 RMK AO2
KBQK 201255Z AUTO 01005KT 10SM CLR 19/14 A3024 RMK AO2
KBQK 201235Z AUTO 01006KT 10SM CLR 18/14 A3023 RMK AO2
KBQK 201215Z AUTO 01005KT 10SM CLR 17/14 A3022 RMK AO2
KBQK 201155Z AUTO 01005KT 10SM CLR 16/13 A3021 RMK AO2
KBQK 201135Z AUTO 01003KT 10SM CLR 16/13 A3021 RMK AO2
KBQK 201115Z AUTO 36003KT 10SM CLR 16/13 A3021 RMK AO2
KBQK 201055Z AUTO 36004KT 10SM CLR 16/13 A3021 RMK AO2
KBQK 201035Z AUTO 35003KT 10SM CLR 16/14 A3020 RMK AO2
KBQK 201015Z AUTO 36003KT 10SM CLR 17/14 A3020 RMK AO2
KBQK 200955Z AUTO 36004KT 10SM CLR 17/14 A3019 RMK AO2
KBQK 200935Z AUTO 01004KT 10SM CLR 17/15 A3019 RMK AO2
KBQK 200915Z AUTO 01004KT 10SM CLR 17/15 A3019 RMK AO2
KBQK 200855Z AUTO 01004KT 10SM CLR 17/15 A3019 RMK AO2
KBQK 200835Z AUTO 36004KT 10SM CLR 17/15 A3019 RMK AO2
KBQK 200815Z AUTO 36004KT 10SM CLR 17/15 A3019 RMK AO2
KBQK 200755Z AUTO 36004KT 10SM CLR 17/15 A3019 RMK AO2
KBQK 200735Z AUTO 36004KT 10SM CLR 18/15 A3019 RMK AO2
KBQK 200715Z AUTO 01005KT 10SM CLR 18/15 A3019 RMK AO2
KBQK 200655Z AUTO 01005KT 10SM CLR 18/16 A3019 RMK AO2
KBQK 200635Z AUTO 01005KT 10SM CLR 18/16 A3019 RMK AO2
KBQK 200615Z AUTO 36005KT 10SM CLR 18/16 A3019 RMK AO2
KBQK 200555Z AUTO 36004KT 10SM CLR 17/16 A3020 RMK AO2